createdAt,value
2019-04-11T00:00:39.625Z,58.30
2019-04-11T00:03:09.956Z,58.22
2019-04-11T00:05:41.247Z,58.06
2019-04-11T00:08:12.122Z,58.59
2019-04-11T00:10:47.093Z,58.66
2019-04-11T00:13:23.898Z,58.87
2019-04-11T00:15:54.996Z,59.22
2019-04-11T00:18:25.434Z,59.33
2019-04-11T00:20:58.222Z,59.51
2019-04-11T00:23:32.838Z,59.64
2019-04-11T00:26:04.966Z,59.66
2019-04-11T00:28:35.210Z,59.98
2019-04-11T00:31:06.368Z,60.20
2019-04-11T00:33:36.849Z,60.17
2019-04-11T00:36:08.344Z,60.16
2019-04-11T00:38:38.807Z,60.20
2019-04-11T00:41:09.988Z,60.10
2019-04-11T00:43:42.503Z,60.24
2019-04-11T00:46:16.162Z,60.34
2019-04-11T00:48:50.323Z,60.60
2019-04-11T00:51:23.550Z,60.74
2019-04-11T00:53:54.188Z,60.73
2019-04-11T00:56:28.333Z,61.00
2019-04-11T00:58:58.380Z,61.11
2019-04-11T01:01:29.579Z,61.35
2019-04-11T01:03:59.885Z,61.57
2019-04-11T01:06:36.514Z,61.60
2019-04-11T01:09:09.595Z,61.60
2019-04-11T01:11:40.710Z,61.79
2019-04-11T01:14:13.168Z,61.79
2019-04-11T01:16:53.699Z,61.87
2019-04-11T01:19:25.037Z,61.75
2019-04-11T01:21:57.892Z,61.92
2019-04-11T01:24:28.149Z,62.17
2019-04-11T01:26:59.325Z,62.35
2019-04-11T01:29:29.870Z,62.63
2019-04-11T01:32:06.416Z,62.49
2019-04-11T01:34:38.010Z,62.38
2019-04-11T01:37:09.250Z,62.47
2019-04-11T01:40:11.715Z,62.49
2019-04-11T01:42:43.705Z,62.64
2019-04-11T01:45:15.444Z,62.64
2019-04-11T01:48:14.041Z,62.93
2019-04-11T01:50:45.253Z,63.02
2019-04-11T01:53:15.747Z,63.06
2019-04-11T01:55:46.201Z,63.27
2019-04-11T01:58:28.894Z,63.27
2019-04-11T02:01:12.665Z,63.32
2019-04-11T02:04:11.677Z,63.51
2019-04-11T02:06:42.848Z,63.64
2019-04-11T02:09:15.833Z,63.49
2019-04-11T02:11:47.718Z,63.42
2019-04-11T02:14:20.719Z,63.69
2019-04-11T02:16:52.014Z,63.69
2019-04-11T02:19:22.318Z,63.75
2019-04-11T02:21:54.892Z,63.79
2019-04-11T02:24:41.975Z,63.79
2019-04-11T02:27:25.878Z,63.78
2019-04-11T02:29:56.590Z,63.86
2019-04-11T02:32:28.995Z,64.04
2019-04-11T02:35:01.440Z,64.21
2019-04-11T02:37:31.754Z,64.23
2019-04-11T02:40:05.344Z,64.32
2019-04-11T02:42:35.829Z,64.19
2019-04-11T02:45:22.802Z,64.00
2019-04-11T02:47:41.573Z,64.05
2019-04-11T02:50:14.932Z,64.21
2019-04-11T02:52:44.486Z,64.41
2019-04-11T02:55:17.089Z,64.51
2019-04-11T02:57:48.262Z,64.41
2019-04-11T03:00:20.558Z,64.46
2019-04-11T03:02:53.145Z,64.63
2019-04-11T03:05:34.439Z,64.69
2019-04-11T03:08:09.210Z,64.74
2019-04-11T03:10:37.774Z,64.88
2019-04-11T03:13:10.593Z,65.17
2019-04-11T03:15:56.826Z,64.83
2019-04-11T03:18:33.264Z,64.77
2019-04-11T03:21:02.820Z,64.81
2019-04-11T03:23:31.189Z,64.95
2019-04-11T03:26:03.239Z,64.69
2019-04-11T03:28:36.408Z,64.64
2019-04-11T03:31:43.930Z,64.27
2019-04-11T03:39:11.937Z,64.52
2019-04-11T03:41:38.476Z,64.72
2019-04-11T03:44:05.830Z,64.47
2019-04-11T03:46:44.943Z,64.70
2019-04-11T03:49:06.157Z,64.84
2019-04-11T03:51:30.629Z,64.76
2019-04-11T03:54:01.545Z,65.08
2019-04-11T03:56:32.994Z,64.66
2019-04-11T03:59:04.181Z,64.93
2019-04-11T04:01:37.985Z,65.13
2019-04-11T04:04:09.199Z,65.18
2019-04-11T04:06:43.248Z,65.32
2019-04-11T04:09:16.306Z,65.46
2019-04-11T04:11:46.928Z,65.62
2019-04-11T04:14:26.327Z,65.35
2019-04-11T04:17:14.840Z,65.67
2019-04-11T04:20:11.079Z,65.83
2019-04-11T04:22:58.464Z,65.65
2019-04-11T04:25:29.486Z,65.89
2019-04-11T04:28:02.971Z,66.01
2019-04-11T04:30:33.544Z,65.85
2019-04-11T04:33:04.985Z,65.88
2019-04-11T04:35:36.737Z,65.75
2019-04-11T04:38:09.403Z,65.68
2019-04-11T04:40:55.803Z,65.61
2019-04-11T04:43:16.538Z,65.59
2019-04-11T04:46:03.469Z,65.78
2019-04-11T04:48:23.056Z,65.78
2019-04-11T04:51:13.297Z,66.00
2019-04-11T04:53:45.210Z,66.01
2019-04-11T04:56:21.962Z,65.95
2019-04-11T04:58:50.753Z,65.96
2019-04-11T05:01:23.577Z,65.96
2019-04-11T05:03:54.119Z,65.63
2019-04-11T05:06:28.996Z,65.63
2019-04-11T05:09:00.041Z,65.50
2019-04-11T05:11:33.864Z,65.40
2019-04-11T05:14:07.231Z,65.46
2019-04-11T05:16:38.032Z,65.24
2019-04-11T05:19:09.704Z,64.94
2019-04-11T05:21:42.105Z,64.63
2019-04-11T05:24:12.596Z,64.51
2019-04-11T05:26:43.950Z,64.25
2019-04-11T05:29:15.280Z,63.90
2019-04-11T05:31:45.654Z,63.70
2019-04-11T05:34:16.110Z,63.37
2019-04-11T05:36:47.175Z,63.08
2019-04-11T05:39:18.551Z,62.80
2019-04-11T05:41:49.964Z,61.80
2019-04-11T05:44:21.304Z,60.97
2019-04-11T05:46:57.236Z,60.93
2019-04-11T05:49:45.094Z,60.71
2019-04-11T05:52:16.135Z,60.68
2019-04-11T05:54:52.561Z,58.86
2019-04-11T05:57:26.875Z,56.46
2019-04-11T05:59:56.245Z,56.93
2019-04-11T06:02:35.317Z,57.84
2019-04-11T06:05:15.209Z,58.14
2019-04-11T06:08:02.528Z,58.38
2019-04-11T06:10:30.600Z,58.06
2019-04-11T06:13:19.097Z,57.22
2019-04-11T06:15:51.986Z,55.56
2019-04-11T06:18:48.117Z,54.08
2019-04-11T06:21:28.300Z,55.08
2019-04-11T06:24:16.635Z,55.08
2019-04-11T06:27:24.283Z,53.70
2019-04-11T06:30:09.567Z,53.52
2019-04-11T06:33:10.182Z,54.27
2019-04-11T06:36:00.171Z,52.97
2019-04-11T06:38:49.740Z,49.73
2019-04-11T06:41:43.633Z,46.95
2019-04-11T06:44:32.087Z,43.70
2019-04-11T06:47:32.560Z,46.43
2019-04-11T06:50:15.228Z,49.78
2019-04-11T06:52:45.860Z,49.80
2019-04-11T06:55:39.606Z,49.87
2019-04-11T06:58:14.994Z,48.52
2019-04-11T07:00:53.527Z,45.29
2019-04-11T07:03:29.259Z,44.93
2019-04-11T07:06:02.842Z,46.04
2019-04-11T07:08:40.674Z,46.47
2019-04-11T07:11:12.171Z,45.73
2019-04-11T07:13:57.555Z,45.05
2019-04-11T07:16:27.915Z,43.55
2019-04-11T07:19:20.477Z,40.10
2019-04-11T07:21:53.184Z,37.12
2019-04-11T07:24:57.501Z,32.62
2019-04-11T07:27:29.778Z,29.53
2019-04-11T07:30:17.725Z,29.03
2019-04-11T07:32:48.289Z,28.09
2019-04-11T07:35:36.230Z,27.68
2019-04-11T07:38:06.911Z,28.10
2019-04-11T07:40:56.432Z,27.23
2019-04-11T07:43:39.085Z,25.68
2019-04-11T07:46:30.738Z,25.22
2019-04-11T07:49:05.950Z,24.19
2019-04-11T07:51:52.967Z,23.96
2019-04-11T07:54:25.938Z,22.52
2019-04-11T07:57:04.399Z,22.52
2019-04-11T08:00:03.885Z,21.49
2019-04-11T08:02:57.684Z,20.65
2019-04-11T08:05:46.728Z,21.24
2019-04-11T08:08:30.136Z,22.28
2019-04-11T08:11:09.493Z,22.07
2019-04-11T08:13:57.883Z,22.68
2019-04-11T08:16:46.901Z,21.13
2019-04-11T08:19:35.221Z,20.84
2019-04-11T08:22:25.198Z,20.24
2019-04-11T08:25:05.703Z,18.38
2019-04-11T08:27:49.820Z,16.92
2019-04-11T08:30:12.790Z,18.57
2019-04-11T08:33:02.504Z,18.83
2019-04-11T08:35:54.031Z,17.40
2019-04-11T08:38:26.786Z,17.75
2019-04-11T08:41:23.710Z,18.38
2019-04-11T08:43:55.252Z,17.11
2019-04-11T08:46:48.134Z,17.33
2019-04-11T08:49:32.083Z,19.73
2019-04-11T08:52:07.602Z,16.92
2019-04-11T08:54:55.793Z,15.44
2019-04-11T08:57:36.160Z,14.53
2019-04-11T09:00:26.311Z,15.77
2019-04-11T09:03:34.534Z,15.84
2019-04-11T09:06:14.725Z,16.03
2019-04-11T09:09:03.399Z,15.13
2019-04-11T09:11:41.121Z,15.85
2019-04-11T09:14:34.450Z,15.40
2019-04-11T09:17:39.077Z,14.07
2019-04-11T09:20:29.784Z,14.02
2019-04-11T09:23:03.504Z,14.90
2019-04-11T09:25:53.734Z,15.86
2019-04-11T09:28:49.602Z,15.80
2019-04-11T09:31:42.225Z,16.64
2019-04-11T09:34:52.213Z,17.10
2019-04-11T09:37:35.865Z,15.96
2019-04-11T09:40:27.925Z,17.24
2019-04-11T09:46:24.121Z,15.72
2019-04-11T09:49:13.618Z,15.72
2019-04-11T09:52:08.819Z,17.06
2019-04-11T09:54:58.874Z,15.77
2019-04-11T09:57:38.750Z,15.77
2019-04-11T10:00:28.978Z,15.24
2019-04-11T10:03:25.688Z,15.64
2019-04-11T10:06:15.874Z,16.81
2019-04-11T10:08:53.264Z,17.12
2019-04-11T10:11:46.319Z,18.05
2019-04-11T10:14:19.710Z,15.69
2019-04-11T10:17:08.666Z,14.05
2019-04-11T10:19:44.321Z,13.28
2019-04-11T10:22:49.504Z,13.69
2019-04-11T10:25:32.131Z,14.67
2019-04-11T10:28:29.486Z,13.85
2019-04-11T10:31:20.317Z,13.59
2019-04-11T10:34:19.647Z,14.74
2019-04-11T10:37:01.233Z,14.03
2019-04-11T10:39:53.717Z,16.66
2019-04-11T10:42:26.655Z,17.58
2019-04-11T10:45:12.182Z,19.80
2019-04-11T10:47:45.016Z,20.63
2019-04-11T10:50:26.739Z,22.95
2019-04-11T10:53:02.593Z,22.95
2019-04-11T10:55:44.475Z,19.74
2019-04-11T10:58:18.770Z,17.93
2019-04-11T11:01:14.318Z,17.23
2019-04-11T11:04:13.773Z,16.20
2019-04-11T11:06:48.303Z,15.92
2019-04-11T11:09:30.300Z,15.73
2019-04-11T11:12:19.047Z,14.69
2019-04-11T11:15:09.922Z,14.69
2019-04-11T11:18:42.676Z,16.30
2019-04-11T11:20:54.041Z,16.30
2019-04-11T11:23:50.793Z,17.59
2019-04-11T11:26:29.495Z,21.24
2019-04-11T11:29:18.934Z,23.81
2019-04-11T11:32:09.646Z,24.97
2019-04-11T11:34:49.251Z,24.89
2019-04-11T11:37:37.894Z,25.43
2019-04-11T11:40:25.888Z,25.93
2019-04-11T11:43:15.262Z,27.11
2019-04-11T11:46:12.089Z,27.09
2019-04-11T11:48:52.270Z,27.45
2019-04-11T11:51:35.241Z,28.04
2019-04-11T11:54:25.682Z,28.36
2019-04-11T11:56:58.257Z,28.72
2019-04-11T11:59:40.583Z,28.65
2019-04-11T12:02:40.630Z,28.54
2019-04-11T12:05:26.235Z,27.91
2019-04-11T12:08:16.550Z,27.76
2019-04-11T12:11:13.521Z,28.08
2019-04-11T12:14:15.868Z,28.95
2019-04-11T12:17:08.504Z,28.62
2019-04-11T12:19:52.898Z,29.29
2019-04-11T12:22:20.083Z,29.79
2019-04-11T12:25:12.549Z,29.14
2019-04-11T12:28:13.144Z,28.64
2019-04-11T12:30:50.145Z,28.03
2019-04-11T12:33:48.260Z,28.18
2019-04-11T12:36:24.394Z,27.86
2019-04-11T12:39:29.289Z,27.87
2019-04-11T12:42:27.444Z,28.57
2019-04-11T12:45:31.169Z,29.09
2019-04-11T12:48:02.971Z,29.09
2019-04-11T12:50:55.328Z,29.48
2019-04-11T12:53:26.998Z,30.69
2019-04-11T12:56:19.936Z,30.98
2019-04-11T12:58:54.030Z,30.69
2019-04-11T13:01:46.619Z,29.89
2019-04-11T13:04:20.734Z,29.34
2019-04-11T13:07:22.407Z,29.81
2019-04-11T13:10:15.010Z,29.59
2019-04-11T13:13:19.704Z,29.41
2019-04-11T13:15:55.238Z,29.84
2019-04-11T13:18:59.898Z,29.43
2019-04-11T13:21:41.632Z,29.06
2019-04-11T13:24:31.703Z,28.56
2019-04-11T13:27:21.037Z,29.60
2019-04-11T13:30:10.642Z,30.07
2019-04-11T13:32:55.560Z,30.52
2019-04-11T13:36:04.456Z,31.09
2019-04-11T13:38:41.462Z,31.30
2019-04-11T13:41:34.247Z,30.63
2019-04-11T13:44:14.031Z,29.73
2019-04-11T13:47:02.696Z,29.73
2019-04-11T13:50:16.242Z,29.76
2019-04-11T13:53:00.365Z,30.09
2019-04-11T13:55:33.279Z,30.12
2019-04-11T13:58:21.622Z,31.04
2019-04-11T14:00:53.764Z,31.37
2019-04-11T14:03:46.248Z,30.91
2019-04-11T14:06:31.093Z,30.19
2019-04-11T14:09:24.508Z,28.65
2019-04-11T14:11:57.821Z,28.65
2019-04-11T14:14:41.278Z,30.05
2019-04-11T14:17:21.892Z,31.07
2019-04-11T14:20:11.617Z,31.16
2019-04-11T14:23:04.064Z,31.07
2019-04-11T14:26:05.863Z,30.45
2019-04-11T14:28:41.632Z,30.53
2019-04-11T14:31:46.970Z,30.24
2019-04-11T14:34:37.745Z,30.23
2019-04-11T14:37:43.251Z,30.17
2019-04-11T14:40:36.464Z,30.07
2019-04-11T14:43:23.235Z,29.82
2019-04-11T14:46:24.394Z,29.86
2019-04-11T14:48:57.145Z,29.57
2019-04-11T14:51:54.348Z,29.84
2019-04-11T14:54:33.966Z,30.42
2019-04-11T14:57:08.867Z,31.49
2019-04-11T14:59:45.556Z,31.34
2019-04-11T15:02:36.631Z,30.98
2019-04-11T15:05:28.982Z,31.15
2019-04-11T15:07:59.995Z,31.25
2019-04-11T15:10:49.425Z,30.93
2019-04-11T15:13:23.458Z,29.95
2019-04-11T15:16:14.335Z,30.15
2019-04-11T15:18:51.076Z,31.10
2019-04-11T15:21:39.483Z,31.76
2019-04-11T15:24:10.731Z,32.07
2019-04-11T15:26:59.968Z,32.40
2019-04-11T15:29:35.852Z,32.00
2019-04-11T15:32:17.322Z,31.73
2019-04-11T15:34:59.904Z,31.29
2019-04-11T15:37:52.657Z,31.66
2019-04-11T15:40:26.276Z,31.94
2019-04-11T15:43:14.154Z,32.10
2019-04-11T15:45:52.582Z,32.47
2019-04-11T15:48:40.612Z,32.91
2019-04-11T15:51:26.806Z,33.26
2019-04-11T15:54:25.617Z,33.55
2019-04-11T15:57:20.649Z,33.82
2019-04-11T16:00:28.279Z,33.45
2019-04-11T16:03:18.414Z,33.31
2019-04-11T16:06:06.874Z,33.51
2019-04-11T16:08:45.807Z,33.19
2019-04-11T16:11:38.153Z,33.19
2019-04-11T16:14:27.487Z,33.15
2019-04-11T16:17:35.495Z,33.41
2019-04-11T16:20:18.128Z,33.05
2019-04-11T16:23:11.228Z,32.72
2019-04-11T16:25:44.980Z,32.51
2019-04-11T16:28:35.792Z,32.53
2019-04-11T16:31:10.942Z,33.34
2019-04-11T16:34:09.220Z,33.34
2019-04-11T16:37:00.012Z,33.88
2019-04-11T16:39:52.090Z,34.07
2019-04-11T16:42:46.747Z,34.39
2019-04-11T16:45:34.060Z,34.58
2019-04-11T16:48:04.449Z,34.66
2019-04-11T16:50:35.005Z,35.03
2019-04-11T16:53:05.938Z,35.76
2019-04-11T16:55:36.984Z,35.66
2019-04-11T16:58:09.988Z,35.60
2019-04-11T17:00:40.612Z,35.62
2019-04-11T17:03:11.107Z,35.62
2019-04-11T17:05:45.715Z,35.37
2019-04-11T17:08:30.209Z,35.57
2019-04-11T17:11:19.144Z,35.99
2019-04-11T17:13:49.763Z,36.36
2019-04-11T17:16:20.910Z,37.09
2019-04-11T17:18:51.539Z,37.13
2019-04-11T17:21:29.033Z,37.28
2019-04-11T17:23:59.745Z,37.31
2019-04-11T17:26:30.058Z,37.47
2019-04-11T17:29:00.487Z,37.87
2019-04-11T17:31:30.784Z,37.70
2019-04-11T17:34:02.380Z,37.63
2019-04-11T17:36:33.513Z,37.75
2019-04-11T17:39:07.627Z,37.89
2019-04-11T17:41:41.744Z,37.97
2019-04-11T17:44:12.019Z,38.21
2019-04-11T17:46:42.596Z,38.43
2019-04-11T17:49:13.173Z,38.65
2019-04-11T17:51:55.003Z,38.64
2019-04-11T17:54:15.477Z,38.41
2019-04-11T17:56:48.494Z,38.33
2019-04-11T17:59:20.523Z,38.54
2019-04-11T18:01:50.932Z,37.97
2019-04-11T18:04:23.349Z,38.23
2019-04-11T18:06:53.925Z,38.70
2019-04-11T18:09:26.656Z,38.94
2019-04-11T18:11:57.164Z,38.94
2019-04-11T18:14:30.771Z,39.18
2019-04-11T18:17:03.797Z,39.38
2019-04-11T18:19:33.858Z,39.60
2019-04-11T18:22:08.189Z,39.72
2019-04-11T18:24:40.132Z,39.95
2019-04-11T18:27:10.642Z,39.91
2019-04-11T18:29:43.082Z,39.90
2019-04-11T18:32:13.736Z,40.04
2019-04-11T18:34:47.109Z,40.20
2019-04-11T18:37:17.434Z,39.91
2019-04-11T18:39:47.993Z,39.98
2019-04-11T18:42:18.464Z,39.68
2019-04-11T18:44:48.865Z,39.85
2019-04-11T18:47:19.203Z,39.89
2019-04-11T18:49:50.998Z,39.85
2019-04-11T18:52:24.784Z,39.41
2019-04-11T18:54:55.661Z,39.67
2019-04-11T18:57:26.301Z,39.69
2019-04-11T18:59:56.655Z,39.71
2019-04-11T19:02:27.286Z,39.56
2019-04-11T19:04:57.721Z,39.72
2019-04-11T19:07:29.308Z,39.77
2019-04-11T19:09:59.868Z,39.73
2019-04-11T19:20:42.744Z,40.41
2019-04-11T19:26:07.466Z,40.81
2019-04-11T19:28:39.189Z,40.46
2019-04-11T19:31:13.001Z,40.11
2019-04-11T19:33:43.904Z,40.19
2019-04-11T19:36:14.339Z,40.15
2019-04-11T19:38:45.069Z,40.47
2019-04-11T19:41:18.146Z,40.67
2019-04-11T19:43:49.171Z,40.80
2019-04-11T19:46:20.327Z,40.70
2019-04-11T19:48:55.040Z,40.68
2019-04-11T19:51:23.824Z,40.74
2019-04-11T19:54:02.849Z,41.14
2019-04-11T19:56:36.205Z,40.75
2019-04-11T19:59:07.963Z,41.09
2019-04-11T20:01:38.453Z,41.48
2019-04-11T20:04:10.255Z,41.53
2019-04-11T20:06:40.613Z,41.63
2019-04-11T20:09:11.323Z,41.75
2019-04-11T20:11:44.943Z,42.01
2019-04-11T20:14:18.535Z,42.48
2019-04-11T20:16:51.952Z,42.64
2019-04-11T20:19:27.130Z,42.76
2019-04-11T20:21:55.197Z,42.92
2019-04-11T20:24:25.923Z,42.93
2019-04-11T20:26:56.270Z,42.93
2019-04-11T20:29:27.394Z,43.07
2019-04-11T20:31:57.999Z,43.28
2019-04-11T20:34:29.458Z,43.42
2019-04-11T20:37:00.073Z,43.36
2019-04-11T20:39:30.523Z,43.66
2019-04-11T20:42:00.994Z,43.47
2019-04-11T20:44:33.317Z,43.41
2019-04-11T20:47:03.707Z,43.68
2019-04-11T20:49:35.766Z,43.80
2019-04-11T20:52:06.232Z,44.15
2019-04-11T20:54:38.478Z,44.43
2019-04-11T20:57:11.862Z,44.60
2019-04-11T20:59:42.362Z,44.78
2019-04-11T21:02:13.008Z,44.89
2019-04-11T21:04:43.421Z,44.99
2019-04-11T21:07:13.740Z,45.20
2019-04-11T21:09:44.570Z,45.20
2019-04-11T21:12:18.124Z,45.46
2019-04-11T21:14:48.755Z,45.43
2019-04-11T21:17:21.091Z,45.65
2019-04-11T21:19:53.254Z,45.70
2019-04-11T21:22:25.457Z,45.64
2019-04-11T21:24:55.814Z,46.05
2019-04-11T21:27:28.938Z,46.09
2019-04-11T21:30:00.077Z,46.39
2019-04-11T21:32:31.799Z,46.31
2019-04-11T21:35:03.210Z,46.30
2019-04-11T21:37:33.493Z,46.51
2019-04-11T21:40:03.981Z,46.51
2019-04-11T21:42:36.740Z,46.41
2019-04-11T21:45:07.517Z,46.65
2019-04-11T21:47:39.333Z,46.66
2019-04-11T21:50:10.403Z,46.95
2019-04-11T21:52:43.464Z,47.30
2019-04-11T21:55:15.327Z,47.59
2019-04-11T21:57:48.862Z,47.72
2019-04-11T22:00:27.300Z,47.70
2019-04-11T22:03:00.008Z,47.80
2019-04-11T22:05:30.328Z,47.43
2019-04-11T22:08:03.703Z,47.38
2019-04-11T22:10:33.766Z,46.89
2019-04-11T22:13:09.817Z,46.90
2019-04-11T22:15:41.898Z,46.69
2019-04-11T22:18:15.942Z,46.50
2019-04-11T22:20:45.255Z,46.23
2019-04-11T22:23:15.234Z,45.93
2019-04-11T22:25:45.658Z,45.94
2019-04-11T22:28:17.101Z,45.41
2019-04-11T22:30:48.854Z,45.22
2019-04-11T22:33:38.134Z,45.29
2019-04-11T22:36:08.626Z,45.44
2019-04-11T22:38:40.739Z,45.46
2019-04-11T22:41:11.292Z,45.41
2019-04-11T22:43:42.102Z,45.37
2019-04-11T22:46:20.597Z,45.46
2019-04-11T22:48:44.433Z,45.48
2019-04-11T22:51:15.106Z,45.65
2019-04-11T22:53:45.709Z,45.71
2019-04-11T22:56:16.074Z,45.71
2019-04-11T22:58:46.685Z,45.58
2019-04-11T23:01:17.238Z,45.62
2019-04-11T23:03:59.626Z,45.39
2019-04-11T23:06:30.091Z,45.34
2019-04-11T23:09:01.754Z,45.50
2019-04-11T23:11:33.807Z,45.55
2019-04-11T23:14:04.270Z,45.41
2019-04-11T23:16:34.641Z,45.41
2019-04-11T23:19:06.374Z,45.61
2019-04-11T23:21:36.708Z,45.59
2019-04-11T23:24:11.998Z,45.51
2019-04-11T23:26:39.174Z,45.57
2019-04-11T23:29:11.085Z,45.58
2019-04-11T23:31:41.647Z,45.59
2019-04-11T23:34:13.466Z,45.71
2019-04-11T23:36:45.244Z,45.65
2019-04-11T23:39:17.567Z,45.62
2019-04-11T23:41:49.843Z,45.71
2019-04-11T23:44:20.940Z,45.85
2019-04-11T23:46:52.624Z,45.83
2019-04-11T23:49:25.261Z,45.87
2019-04-11T23:51:56.440Z,45.81
2019-04-11T23:54:29.184Z,45.85
2019-04-11T23:57:01.072Z,46.04
2019-04-11T23:59:32.904Z,45.97
